Sirio Tres — EA8085 — position and weather

sailwx.info

Track history (hours):
 
Tides and Currents Weather Stations Pressure Air Temp Water Temp Dewpoint Dewpoint Depression Visibility Wind Speed Wind Dir Waves Ship Positions

Sirio Tres

Last reported at 2018-Jul-11 10:31 UTC. Time now 2018-Jul-22 17:55 UTC.
Position N 38°59' E 001°35'.
Warning: this ship's position is 11 days out of date.

Length 13 m.

Type: Sailing vessel. MMSI: 224129990.

Date/timePositionNaut miles runAvg speedWind from/ knotsBaromVisibWave heightAir tempDewpointWater temp
2018-Jul-11 10:31N 38°59' E 001°35'0 6.7
2018-Jul-11 10:27N 38°59' E 001°35'2 3.6
2018-Jul-11 09:59N 38°59' E 001°32'0 0.1
2018-Jul-11 09:26N 38°59' E 001°32'0 0.0
2018-Jul-10 13:06N 38°59' E 001°32'0 0.0
2018-Jul-10 13:00N 38°59' E 001°32'0 0.0
2018-Jul-10 12:30N 38°59' E 001°32'1 2.0
2018-Jul-10 11:59N 38°59' E 001°34'  
2018-Jul-03 14:40N 38°59' E 001°35'1 6.9
2018-Jul-03 14:30N 38°58' E 001°34'2 0.4
2018-Jul-03 10:07N 38°58' E 001°32'1 6.1
2018-Jul-03 10:00N 38°58' E 001°32'1 0.0
2018-Jul-02 10:47N 38°59' E 001°32'0 0.4
2018-Jul-02 10:25N 38°59' E 001°32'0 0.0
2018-Jul-01 14:04N 38°59' E 001°32'0 0.0
2018-Jul-01 13:58N 38°59' E 001°32'0 0.2
2018-Jul-01 12:23N 38°59' E 001°32'0 0.7
2018-Jul-01 11:58N 38°59' E 001°32'0 0.0
2018-Jul-01 11:30N 38°59' E 001°32'3 6.4
2018-Jul-01 10:58N 38°56' E 001°32'  
Track history (hours):
 
Tides and Currents Weather Stations Pressure Air Temp Water Temp Dewpoint Dewpoint Depression Visibility Wind Speed Wind Dir Waves Ship Positions

Sirio Tres

Last reported at 2018-Jul-11 10:31 UTC. Time now 2018-Jul-22 17:55 UTC.
Position N 38°59' E 001°35'.
Warning: this ship's position is 11 days out of date.

Length 13 m.

Type: Sailing vessel. MMSI: 224129990.

Date/timePositionNaut miles runAvg speedWind from/ knotsBaromVisibWave heightAir tempDewpointWater temp
2018-Jul-11 10:31N 38°59' E 001°35'0 6.7
2018-Jul-11 10:27N 38°59' E 001°35'2 3.6
2018-Jul-11 09:59N 38°59' E 001°32'0 0.1
2018-Jul-11 09:26N 38°59' E 001°32'0 0.0
2018-Jul-10 13:06N 38°59' E 001°32'0 0.0
2018-Jul-10 13:00N 38°59' E 001°32'0 0.0
2018-Jul-10 12:30N 38°59' E 001°32'1 2.0
2018-Jul-10 11:59N 38°59' E 001°34'  
2018-Jul-03 14:40N 38°59' E 001°35'1 6.9
2018-Jul-03 14:30N 38°58' E 001°34'2 0.4
2018-Jul-03 10:07N 38°58' E 001°32'1 6.1
2018-Jul-03 10:00N 38°58' E 001°32'1 0.0
2018-Jul-02 10:47N 38°59' E 001°32'0 0.4
2018-Jul-02 10:25N 38°59' E 001°32'0 0.0
2018-Jul-01 14:04N 38°59' E 001°32'0 0.0
2018-Jul-01 13:58N 38°59' E 001°32'0 0.2
2018-Jul-01 12:23N 38°59' E 001°32'0 0.7
2018-Jul-01 11:58N 38°59' E 001°32'0 0.0
2018-Jul-01 11:30N 38°59' E 001°32'3 6.4
2018-Jul-01 10:58N 38°56' E 001°32'  

Dump ship's entire track history